sensor_id;sensor_type;location;lat;lon;timestamp;pressure;altitude;pressure_sealevel;temperature;humidity
498;BME280;39559;48.630;9.162;2023-05-19T00:01:02;97919.69;;;9.59;100.00
498;BME280;39559;48.630;9.162;2023-05-19T00:03:28;97918.72;;;9.62;100.00
498;BME280;39559;48.630;9.162;2023-05-19T00:05:55;97911.69;;;9.66;100.00
498;BME280;39559;48.630;9.162;2023-05-19T00:08:23;97913.31;;;9.70;100.00
498;BME280;39559;48.630;9.162;2023-05-19T00:10:49;97911.09;;;9.57;100.00
498;BME280;39559;48.630;9.162;2023-05-19T00:13:15;97904.13;;;9.86;100.00
498;BME280;39559;48.630;9.162;2023-05-19T00:15:41;97899.25;;;9.77;100.00
498;BME280;39559;48.630;9.162;2023-05-19T00:18:06;97898.72;;;9.66;100.00
498;BME280;39559;48.630;9.162;2023-05-19T00:20:33;97894.72;;;9.57;100.00
498;BME280;39559;48.630;9.162;2023-05-19T00:24:59;97892.63;;;9.40;100.00
498;BME280;39559;48.630;9.162;2023-05-19T00:27:25;97895.22;;;9.40;100.00
498;BME280;39559;48.630;9.162;2023-05-19T00:29:50;97894.03;;;9.50;100.00
498;BME280;39559;48.630;9.162;2023-05-19T00:32:16;97894.09;;;9.49;100.00
498;BME280;39559;48.630;9.162;2023-05-19T00:34:41;97890.84;;;9.42;100.00
498;BME280;39559;48.630;9.162;2023-05-19T00:37:07;97899.47;;;9.43;100.00
498;BME280;39559;48.630;9.162;2023-05-19T00:39:32;97892.22;;;9.54;100.00
498;BME280;39559;48.630;9.162;2023-05-19T00:41:58;97897.13;;;9.61;100.00
498;BME280;39559;48.630;9.162;2023-05-19T00:44:23;97905.31;;;9.49;100.00
498;BME280;39559;48.630;9.162;2023-05-19T00:49:04;97898.69;;;9.40;100.00
498;BME280;39559;48.630;9.162;2023-05-19T00:51:30;97898.09;;;9.31;100.00
498;BME280;39559;48.630;9.162;2023-05-19T00:53:56;97906.53;;;9.37;100.00
498;BME280;39559;48.630;9.162;2023-05-19T00:56:22;97896.88;;;9.43;100.00
498;BME280;39559;48.630;9.162;2023-05-19T00:58:49;97898.59;;;9.42;100.00
498;BME280;39559;48.630;9.162;2023-05-19T01:01:15;97891.59;;;9.46;100.00
498;BME280;39559;48.630;9.162;2023-05-19T01:03:51;97888.25;;;9.42;100.00
498;BME280;39559;48.630;9.162;2023-05-19T01:06:17;97879.59;;;9.43;100.00
498;BME280;39559;48.630;9.162;2023-05-19T01:08:45;97878.88;;;9.38;100.00
498;BME280;39559;48.630;9.162;2023-05-19T01:12:54;97880.53;;;9.40;100.00
498;BME280;39559;48.630;9.162;2023-05-19T01:15:20;97883.19;;;9.39;100.00
498;BME280;39559;48.630;9.162;2023-05-19T01:17:59;97883.25;;;9.36;100.00
498;BME280;39559;48.630;9.162;2023-05-19T01:20:35;97883.47;;;9.30;100.00
498;BME280;39559;48.630;9.162;2023-05-19T01:23:22;97889.50;;;9.30;100.00
498;BME280;39559;48.630;9.162;2023-05-19T01:31:12;97889.00;;;9.17;100.00
498;BME280;39559;48.630;9.162;2023-05-19T01:33:40;97898.19;;;9.28;100.00
498;BME280;39559;48.630;9.162;2023-05-19T01:36:54;97894.13;;;9.20;100.00
498;BME280;39559;48.630;9.162;2023-05-19T01:39:20;97901.94;;;9.19;100.00
498;BME280;39559;48.630;9.162;2023-05-19T01:41:46;97894.72;;;9.29;100.00
498;BME280;39559;48.630;9.162;2023-05-19T01:44:12;97898.91;;;9.33;100.00
498;BME280;39559;48.630;9.162;2023-05-19T01:46:40;97901.59;;;9.30;100.00
498;BME280;39559;48.630;9.162;2023-05-19T01:49:06;97888.94;;;9.20;100.00
498;BME280;39559;48.630;9.162;2023-05-19T01:51:32;97887.56;;;9.37;100.00
498;BME280;39559;48.630;9.162;2023-05-19T01:53:58;97882.38;;;9.37;100.00
498;BME280;39559;48.630;9.162;2023-05-19T01:56:46;97886.13;;;9.27;100.00
498;BME280;39559;48.630;9.162;2023-05-19T02:00:52;97883.00;;;9.17;100.00
498;BME280;39559;48.630;9.162;2023-05-19T02:06:26;97885.44;;;9.21;100.00
498;BME280;39559;48.630;9.162;2023-05-19T02:14:39;97890.63;;;9.21;100.00
498;BME280;39559;48.630;9.162;2023-05-19T02:17:07;97886.13;;;9.27;100.00
498;BME280;39559;48.630;9.162;2023-05-19T02:19:35;97884.16;;;9.07;100.00
498;BME280;39559;48.630;9.162;2023-05-19T02:22:01;97897.66;;;9.16;100.00
498;BME280;39559;48.630;9.162;2023-05-19T02:24:47;97893.16;;;9.23;100.00
498;BME280;39559;48.630;9.162;2023-05-19T02:27:16;97883.31;;;9.34;100.00
498;BME280;39559;48.630;9.162;2023-05-19T02:29:41;97886.84;;;9.32;100.00
498;BME280;39559;48.630;9.162;2023-05-19T02:32:07;97882.50;;;9.32;100.00
498;BME280;39559;48.630;9.162;2023-05-19T02:34:32;97885.94;;;9.33;100.00
498;BME280;39559;48.630;9.162;2023-05-19T02:36:58;97890.56;;;9.23;100.00
498;BME280;39559;48.630;9.162;2023-05-19T02:39:24;97884.44;;;9.26;100.00
498;BME280;39559;48.630;9.162;2023-05-19T02:41:50;97879.31;;;9.24;100.00
498;BME280;39559;48.630;9.162;2023-05-19T02:44:15;97878.44;;;9.23;100.00
498;BME280;39559;48.630;9.162;2023-05-19T02:48:45;97882.88;;;9.20;100.00
498;BME280;39559;48.630;9.162;2023-05-19T02:51:11;97881.91;;;9.24;100.00
498;BME280;39559;48.630;9.162;2023-05-19T02:53:36;97873.28;;;9.23;100.00
498;BME280;39559;48.630;9.162;2023-05-19T02:56:02;97881.84;;;9.26;100.00
498;BME280;39559;48.630;9.162;2023-05-19T02:58:27;97873.44;;;9.19;100.00
498;BME280;39559;48.630;9.162;2023-05-19T03:00:54;97873.63;;;9.11;100.00
498;BME280;39559;48.630;9.162;2023-05-19T03:03:20;97875.53;;;9.06;100.00
498;BME280;39559;48.630;9.162;2023-05-19T03:05:46;97877.16;;;9.10;100.00
498;BME280;39559;48.630;9.162;2023-05-19T03:08:12;97873.88;;;9.03;100.00
498;BME280;39559;48.630;9.162;2023-05-19T03:12:43;97876.59;;;9.00;100.00
498;BME280;39559;48.630;9.162;2023-05-19T03:15:09;97868.56;;;9.08;100.00
498;BME280;39559;48.630;9.162;2023-05-19T03:17:37;97875.09;;;8.92;100.00
498;BME280;39559;48.630;9.162;2023-05-19T03:20:03;97874.03;;;8.99;100.00
498;BME280;39559;48.630;9.162;2023-05-19T03:22:30;97873.59;;;8.84;100.00
498;BME280;39559;48.630;9.162;2023-05-19T03:24:56;97873.47;;;8.88;100.00
498;BME280;39559;48.630;9.162;2023-05-19T03:27:23;97877.94;;;9.12;100.00
498;BME280;39559;48.630;9.162;2023-05-19T03:29:48;97874.44;;;8.85;100.00
498;BME280;39559;48.630;9.162;2023-05-19T03:32:14;97880.44;;;8.86;100.00
498;BME280;39559;48.630;9.162;2023-05-19T03:36:40;97870.38;;;8.76;100.00
498;BME280;39559;48.630;9.162;2023-05-19T03:39:05;97874.59;;;8.80;100.00
498;BME280;39559;48.630;9.162;2023-05-19T03:41:31;97875.22;;;8.87;100.00
498;BME280;39559;48.630;9.162;2023-05-19T03:43:57;97873.84;;;9.05;100.00
498;BME280;39559;48.630;9.162;2023-05-19T03:46:22;97879.22;;;8.99;100.00
498;BME280;39559;48.630;9.162;2023-05-19T03:48:48;97879.09;;;9.02;100.00
498;BME280;39559;48.630;9.162;2023-05-19T03:51:13;97877.59;;;8.95;100.00
498;BME280;39559;48.630;9.162;2023-05-19T03:53:39;97874.91;;;8.98;100.00
498;BME280;39559;48.630;9.162;2023-05-19T03:56:05;97884.28;;;9.02;100.00
498;BME280;39559;48.630;9.162;2023-05-19T04:00:39;97874.00;;;9.00;100.00
498;BME280;39559;48.630;9.162;2023-05-19T04:03:05;97879.03;;;9.05;100.00
498;BME280;39559;48.630;9.162;2023-05-19T04:05:30;97883.44;;;9.01;100.00
498;BME280;39559;48.630;9.162;2023-05-19T04:07:56;97877.38;;;9.02;100.00
498;BME280;39559;48.630;9.162;2023-05-19T04:10:21;97881.75;;;9.00;100.00
498;BME280;39559;48.630;9.162;2023-05-19T04:12:47;97880.84;;;9.01;100.00
498;BME280;39559;48.630;9.162;2023-05-19T04:15:13;97878.56;;;8.91;100.00
498;BME280;39559;48.630;9.162;2023-05-19T04:17:39;97874.03;;;8.99;100.00
498;BME280;39559;48.630;9.162;2023-05-19T04:20:05;97881.94;;;8.94;100.00
498;BME280;39559;48.630;9.162;2023-05-19T04:24:36;97884.56;;;8.93;100.00
498;BME280;39559;48.630;9.162;2023-05-19T04:27:02;97891.28;;;8.98;100.00
498;BME280;39559;48.630;9.162;2023-05-19T04:29:29;97882.09;;;8.90;100.00
498;BME280;39559;48.630;9.162;2023-05-19T04:31:55;97889.28;;;9.08;100.00
498;BME280;39559;48.630;9.162;2023-05-19T04:34:21;97882.56;;;9.02;100.00
498;BME280;39559;48.630;9.162;2023-05-19T04:36:47;97881.59;;;9.05;100.00
498;BME280;39559;48.630;9.162;2023-05-19T04:39:13;97881.75;;;9.00;100.00
498;BME280;39559;48.630;9.162;2023-05-19T04:41:38;97878.31;;;9.00;100.00
498;BME280;39559;48.630;9.162;2023-05-19T04:44:07;97882.66;;;8.99;100.00
498;BME280;39559;48.630;9.162;2023-05-19T04:48:34;97878.19;;;9.05;100.00
498;BME280;39559;48.630;9.162;2023-05-19T04:51:00;97884.16;;;9.07;100.00
498;BME280;39559;48.630;9.162;2023-05-19T04:53:30;97882.91;;;9.18;100.00
498;BME280;39559;48.630;9.162;2023-05-19T04:55:57;97886.50;;;9.14;100.00
498;BME280;39559;48.630;9.162;2023-05-19T04:58:22;97883.56;;;9.27;100.00
498;BME280;39559;48.630;9.162;2023-05-19T05:00:51;97886.06;;;9.30;100.00
498;BME280;39559;48.630;9.162;2023-05-19T05:03:17;97887.94;;;9.25;100.00
498;BME280;39559;48.630;9.162;2023-05-19T05:05:43;97878.13;;;9.34;100.00
498;BME280;39559;48.630;9.162;2023-05-19T05:08:10;97881.97;;;9.22;100.00
498;BME280;39559;48.630;9.162;2023-05-19T05:12:33;97888.78;;;9.25;100.00
498;BME280;39559;48.630;9.162;2023-05-19T05:14:59;97886.94;;;9.29;100.00
498;BME280;39559;48.630;9.162;2023-05-19T05:17:25;97882.72;;;9.26;100.00
498;BME280;39559;48.630;9.162;2023-05-19T05:19:51;97893.72;;;9.33;100.00
498;BME280;39559;48.630;9.162;2023-05-19T05:22:17;97883.22;;;9.37;100.00
498;BME280;39559;48.630;9.162;2023-05-19T05:24:43;97892.75;;;9.37;100.00
498;BME280;39559;48.630;9.162;2023-05-19T05:27:09;97890.63;;;9.50;100.00
498;BME280;39559;48.630;9.162;2023-05-19T05:29:36;97884.47;;;9.52;100.00
498;BME280;39559;48.630;9.162;2023-05-19T05:32:02;97879.16;;;9.57;100.00
498;BME280;39559;48.630;9.162;2023-05-19T05:36:28;97888.00;;;9.76;100.00
498;BME280;39559;48.630;9.162;2023-05-19T05:38:55;97886.88;;;9.85;100.00
498;BME280;39559;48.630;9.162;2023-05-19T05:41:21;97877.13;;;9.92;100.00
498;BME280;39559;48.630;9.162;2023-05-19T05:43:47;97885.72;;;9.94;100.00
498;BME280;39559;48.630;9.162;2023-05-19T05:46:12;97880.22;;;10.03;100.00
498;BME280;39559;48.630;9.162;2023-05-19T05:48:42;97883.69;;;10.02;100.00
498;BME280;39559;48.630;9.162;2023-05-19T05:51:08;97889.19;;;9.93;100.00
498;BME280;39559;48.630;9.162;2023-05-19T05:53:40;97885.44;;;10.02;100.00
498;BME280;39559;48.630;9.162;2023-05-19T05:56:17;97888.78;;;10.05;100.00
498;BME280;39559;48.630;9.162;2023-05-19T06:00:27;97887.84;;;10.08;100.00
498;BME280;39559;48.630;9.162;2023-05-19T06:03:04;97895.41;;;10.14;100.00
498;BME280;39559;48.630;9.162;2023-05-19T06:05:30;97888.06;;;10.27;100.00
498;BME280;39559;48.630;9.162;2023-05-19T06:07:55;97888.88;;;10.27;100.00
498;BME280;39559;48.630;9.162;2023-05-19T06:10:21;97888.00;;;10.28;100.00
498;BME280;39559;48.630;9.162;2023-05-19T06:12:47;97891.84;;;10.43;100.00
498;BME280;39559;48.630;9.162;2023-05-19T06:15:13;97882.25;;;10.45;100.00
498;BME280;39559;48.630;9.162;2023-05-19T06:17:39;97883.44;;;10.60;100.00
498;BME280;39559;48.630;9.162;2023-05-19T06:20:05;97886.91;;;10.61;100.00
498;BME280;39559;48.630;9.162;2023-05-19T06:24:30;97878.97;;;10.64;100.00
498;BME280;39559;48.630;9.162;2023-05-19T06:26:56;97884.94;;;10.66;100.00
498;BME280;39559;48.630;9.162;2023-05-19T06:29:21;97884.00;;;10.68;100.00
498;BME280;39559;48.630;9.162;2023-05-19T06:31:47;97878.59;;;10.74;100.00
498;BME280;39559;48.630;9.162;2023-05-19T06:34:14;97878.91;;;10.65;100.00
498;BME280;39559;48.630;9.162;2023-05-19T06:36:41;97880.84;;;10.84;100.00
498;BME280;39559;48.630;9.162;2023-05-19T06:39:07;97886.72;;;10.89;100.00
498;BME280;39559;48.630;9.162;2023-05-19T06:41:32;97877.69;;;10.99;100.00
498;BME280;39559;48.630;9.162;2023-05-19T06:43:58;97880.94;;;11.04;100.00
498;BME280;39559;48.630;9.162;2023-05-19T06:48:25;97871.50;;;11.24;100.00
498;BME280;39559;48.630;9.162;2023-05-19T06:50:51;97875.88;;;11.45;100.00
498;BME280;39559;48.630;9.162;2023-05-19T06:53:20;97873.38;;;11.42;100.00
498;BME280;39559;48.630;9.162;2023-05-19T06:55:46;97875.97;;;11.42;100.00
498;BME280;39559;48.630;9.162;2023-05-19T06:58:15;97882.59;;;11.51;100.00
498;BME280;39559;48.630;9.162;2023-05-19T07:00:41;97880.59;;;11.58;100.00
498;BME280;39559;48.630;9.162;2023-05-19T07:03:07;97885.69;;;11.61;100.00
498;BME280;39559;48.630;9.162;2023-05-19T07:05:34;97883.97;;;11.60;100.00
498;BME280;39559;48.630;9.162;2023-05-19T07:08:01;97882.50;;;11.75;100.00
498;BME280;39559;48.630;9.162;2023-05-19T07:12:23;97886.03;;;11.74;100.00
498;BME280;39559;48.630;9.162;2023-05-19T07:14:48;97888.09;;;11.43;100.00
498;BME280;39559;48.630;9.162;2023-05-19T07:17:14;97890.53;;;11.48;100.00
498;BME280;39559;48.630;9.162;2023-05-19T07:19:40;97888.75;;;11.48;100.00
498;BME280;39559;48.630;9.162;2023-05-19T07:22:05;97882.59;;;11.51;100.00
498;BME280;39559;48.630;9.162;2023-05-19T07:24:31;97871.25;;;11.74;100.00
498;BME280;39559;48.630;9.162;2023-05-19T07:26:57;97879.22;;;11.69;100.00
498;BME280;39559;48.630;9.162;2023-05-19T07:29:24;97874.38;;;11.82;100.00
498;BME280;39559;48.630;9.162;2023-05-19T07:31:53;97883.81;;;11.85;100.00
498;BME280;39559;48.630;9.162;2023-05-19T07:36:18;97877.84;;;11.83;100.00
498;BME280;39559;48.630;9.162;2023-05-19T07:38:49;97874.63;;;11.76;100.00
498;BME280;39559;48.630;9.162;2023-05-19T07:41:15;97873.13;;;11.70;100.00
498;BME280;39559;48.630;9.162;2023-05-19T07:43:52;97866.31;;;11.68;100.00
498;BME280;39559;48.630;9.162;2023-05-19T07:46:20;97870.22;;;11.78;100.00
498;BME280;39559;48.630;9.162;2023-05-19T07:48:46;97878.69;;;11.83;100.00
498;BME280;39559;48.630;9.162;2023-05-19T07:51:12;97882.06;;;11.85;100.00
498;BME280;39559;48.630;9.162;2023-05-19T07:53:39;97881.53;;;11.77;100.00
498;BME280;39559;48.630;9.162;2023-05-19T07:56:05;97880.88;;;11.72;100.00
498;BME280;39559;48.630;9.162;2023-05-19T08:00:16;97877.34;;;11.73;100.00
498;BME280;39559;48.630;9.162;2023-05-19T08:02:43;97872.16;;;11.73;100.00
498;BME280;39559;48.630;9.162;2023-05-19T08:05:09;97872.09;;;11.75;100.00
498;BME280;39559;48.630;9.162;2023-05-19T08:07:34;97860.09;;;11.93;100.00
498;BME280;39559;48.630;9.162;2023-05-19T08:10:00;97859.63;;;11.83;100.00
498;BME280;39559;48.630;9.162;2023-05-19T08:12:27;97855.56;;;11.98;100.00
498;BME280;39559;48.630;9.162;2023-05-19T08:14:53;97860.06;;;11.94;100.00
498;BME280;39559;48.630;9.162;2023-05-19T08:17:18;97862.69;;;12.13;100.00
498;BME280;39559;48.630;9.162;2023-05-19T08:19:44;97862.84;;;12.10;100.00
498;BME280;39559;48.630;9.162;2023-05-19T08:24:15;97848.81;;;11.94;100.00
498;BME280;39559;48.630;9.162;2023-05-19T08:26:44;97863.63;;;11.92;100.00
498;BME280;39559;48.630;9.162;2023-05-19T08:29:11;97849.56;;;11.96;100.00
498;BME280;39559;48.630;9.162;2023-05-19T08:31:37;97852.69;;;12.04;100.00
498;BME280;39559;48.630;9.162;2023-05-19T08:34:02;97854.22;;;11.87;100.00
498;BME280;39559;48.630;9.162;2023-05-19T08:36:28;97854.47;;;11.81;100.00
498;BME280;39559;48.630;9.162;2023-05-19T08:38:54;97842.91;;;11.68;99.55
498;BME280;39559;48.630;9.162;2023-05-19T08:41:20;97848.13;;;11.88;100.00
498;BME280;39559;48.630;9.162;2023-05-19T08:43:47;97838.50;;;11.90;100.00
498;BME280;39559;48.630;9.162;2023-05-19T08:48:16;97843.53;;;11.95;100.00
498;BME280;39559;48.630;9.162;2023-05-19T08:52:07;97843.75;;;11.89;100.00
498;BME280;39559;48.630;9.162;2023-05-19T08:54:10;97846.03;;;11.97;100.00
498;BME280;39559;48.630;9.162;2023-05-19T08:56:37;97849.06;;;12.08;100.00
498;BME280;39559;48.630;9.162;2023-05-19T08:59:03;97847.78;;;12.17;100.00
498;BME280;39559;48.630;9.162;2023-05-19T09:01:29;97840.59;;;12.03;100.00
498;BME280;39559;48.630;9.162;2023-05-19T09:03:55;97842.03;;;12.10;100.00
498;BME280;39559;48.630;9.162;2023-05-19T09:06:21;97834.53;;;12.23;100.00
498;BME280;39559;48.630;9.162;2023-05-19T09:08:47;97833.78;;;12.40;100.00
498;BME280;39559;48.630;9.162;2023-05-19T09:12:12;97837.81;;;12.47;97.55
498;BME280;39559;48.630;9.162;2023-05-19T09:14:38;97836.50;;;12.57;100.00
498;BME280;39559;48.630;9.162;2023-05-19T09:17:04;97837.63;;;12.52;99.87
498;BME280;39559;48.630;9.162;2023-05-19T09:19:31;97839.16;;;12.56;95.78
498;BME280;39559;48.630;9.162;2023-05-19T09:21:57;97838.88;;;12.62;95.45
498;BME280;39559;48.630;9.162;2023-05-19T09:24:30;97836.50;;;12.57;96.33
498;BME280;39559;48.630;9.162;2023-05-19T09:26:56;97840.81;;;12.38;96.46
498;BME280;39559;48.630;9.162;2023-05-19T09:29:22;97842.78;;;12.33;98.07
498;BME280;39559;48.630;9.162;2023-05-19T09:31:52;97844.47;;;12.34;100.00
498;BME280;39559;48.630;9.162;2023-05-19T09:36:09;97831.72;;;12.27;100.00
498;BME280;39559;48.630;9.162;2023-05-19T09:38:37;97844.28;;;12.18;97.24
498;BME280;39559;48.630;9.162;2023-05-19T09:41:04;97835.72;;;12.35;100.00
498;BME280;39559;48.630;9.162;2023-05-19T09:43:37;97839.91;;;12.18;98.52
498;BME280;39559;48.630;9.162;2023-05-19T09:46:04;97831.22;;;12.19;97.78
498;BME280;39559;48.630;9.162;2023-05-19T09:48:34;97829.09;;;12.27;100.00
498;BME280;39559;48.630;9.162;2023-05-19T09:51:03;97838.50;;;12.32;100.00
498;BME280;39559;48.630;9.162;2023-05-19T09:53:30;97823.66;;;12.34;97.87
498;BME280;39559;48.630;9.162;2023-05-19T09:56:03;97822.88;;;12.32;100.00
498;BME280;39559;48.630;9.162;2023-05-19T10:00:10;97820.34;;;12.30;96.32
498;BME280;39559;48.630;9.162;2023-05-19T10:02:45;97820.81;;;12.19;98.11
498;BME280;39559;48.630;9.162;2023-05-19T10:05:18;97830.91;;;12.06;99.76
498;BME280;39559;48.630;9.162;2023-05-19T10:07:49;97834.06;;;12.13;99.37
498;BME280;39559;48.630;9.162;2023-05-19T10:10:16;97837.66;;;12.10;96.71
498;BME280;39559;48.630;9.162;2023-05-19T10:12:42;97836.16;;;12.05;100.00
498;BME280;39559;48.630;9.162;2023-05-19T10:15:10;97833.94;;;12.16;100.00
498;BME280;39559;48.630;9.162;2023-05-19T10:17:41;97837.25;;;12.20;99.34
498;BME280;39559;48.630;9.162;2023-05-19T10:20:08;97835.25;;;12.26;100.00
498;BME280;39559;48.630;9.162;2023-05-19T10:24:04;97839.75;;;12.23;100.00
498;BME280;39559;48.630;9.162;2023-05-19T10:26:29;97834.56;;;12.42;100.00
498;BME280;39559;48.630;9.162;2023-05-19T10:28:56;97834.31;;;12.27;100.00
498;BME280;39559;48.630;9.162;2023-05-19T10:31:23;97839.69;;;12.24;100.00
498;BME280;39559;48.630;9.162;2023-05-19T10:34:13;97828.69;;;12.37;99.18
498;BME280;39559;48.630;9.162;2023-05-19T10:39:43;97821.44;;;12.24;99.04
498;BME280;39559;48.630;9.162;2023-05-19T10:42:17;97821.88;;;12.34;100.00
498;BME280;39559;48.630;9.162;2023-05-19T10:45:01;97820.47;;;12.27;99.35
498;BME280;39559;48.630;9.162;2023-05-19T10:48:02;97821.56;;;12.21;100.00
498;BME280;39559;48.630;9.162;2023-05-19T10:50:34;97819.16;;;12.37;99.95
498;BME280;39559;48.630;9.162;2023-05-19T10:53:01;97823.22;;;12.43;98.50
498;BME280;39559;48.630;9.162;2023-05-19T10:55:46;97828.31;;;12.65;98.45
498;BME280;39559;48.630;9.162;2023-05-19T11:01:08;97823.53;;;12.56;97.44
498;BME280;39559;48.630;9.162;2023-05-19T11:03:46;97818.50;;;12.51;96.78
498;BME280;39559;48.630;9.162;2023-05-19T11:06:29;97823.25;;;12.62;94.62
498;BME280;39559;48.630;9.162;2023-05-19T11:12:07;97821.84;;;12.74;95.24
498;BME280;39559;48.630;9.162;2023-05-19T11:14:34;97825.09;;;12.79;97.66
498;BME280;39559;48.630;9.162;2023-05-19T11:17:00;97826.06;;;12.76;95.80
498;BME280;39559;48.630;9.162;2023-05-19T11:19:26;97820.78;;;12.78;96.16
498;BME280;39559;48.630;9.162;2023-05-19T11:21:52;97825.78;;;12.82;96.67
498;BME280;39559;48.630;9.162;2023-05-19T11:24:43;97821.16;;;12.70;96.08
498;BME280;39559;48.630;9.162;2023-05-19T11:27:31;97825.66;;;12.66;95.12
498;BME280;39559;48.630;9.162;2023-05-19T11:32:34;97826.47;;;12.67;93.24
498;BME280;39559;48.630;9.162;2023-05-19T11:35:56;97819.44;;;12.88;91.58
498;BME280;39559;48.630;9.162;2023-05-19T11:38:27;97819.44;;;12.69;92.71
498;BME280;39559;48.630;9.162;2023-05-19T11:40:55;97816.69;;;12.72;90.42
498;BME280;39559;48.630;9.162;2023-05-19T11:43:26;97823.59;;;12.54;91.59
498;BME280;39559;48.630;9.162;2023-05-19T11:45:55;97822.53;;;12.58;89.92
498;BME280;39559;48.630;9.162;2023-05-19T11:48:20;97814.34;;;12.66;91.50
498;BME280;39559;48.630;9.162;2023-05-19T11:50:46;97814.88;;;12.55;95.96
498;BME280;39559;48.630;9.162;2023-05-19T11:53:12;97812.53;;;12.87;96.93
498;BME280;39559;48.630;9.162;2023-05-19T11:55:44;97807.06;;;12.74;93.77
498;BME280;39559;48.630;9.162;2023-05-19T11:59:54;97812.25;;;12.74;91.23
498;BME280;39559;48.630;9.162;2023-05-19T12:02:24;97804.06;;;12.82;91.51
498;BME280;39559;48.630;9.162;2023-05-19T12:04:52;97807.00;;;13.12;92.50
498;BME280;39559;48.630;9.162;2023-05-19T12:07:21;97804.91;;;13.01;89.25
498;BME280;39559;48.630;9.162;2023-05-19T12:09:48;97803.00;;;13.05;88.73
498;BME280;39559;48.630;9.162;2023-05-19T12:12:21;97809.13;;;13.04;89.52
498;BME280;39559;48.630;9.162;2023-05-19T12:14:51;97804.84;;;13.03;89.35
498;BME280;39559;48.630;9.162;2023-05-19T12:17:19;97801.22;;;13.05;88.65
498;BME280;39559;48.630;9.162;2023-05-19T12:19:50;97807.84;;;13.32;93.04
498;BME280;39559;48.630;9.162;2023-05-19T12:23:49;97813.91;;;13.32;89.11
498;BME280;39559;48.630;9.162;2023-05-19T12:26:15;97812.25;;;13.30;91.83
498;BME280;39559;48.630;9.162;2023-05-19T12:28:45;97804.34;;;12.95;96.01
498;BME280;39559;48.630;9.162;2023-05-19T12:31:11;97812.66;;;13.03;95.86
498;BME280;39559;48.630;9.162;2023-05-19T12:33:36;97813.13;;;13.30;93.12
498;BME280;39559;48.630;9.162;2023-05-19T12:36:05;97816.69;;;13.28;92.88
498;BME280;39559;48.630;9.162;2023-05-19T12:38:31;97822.91;;;13.25;94.70
498;BME280;39559;48.630;9.162;2023-05-19T12:41:01;97822.28;;;13.20;95.11
498;BME280;39559;48.630;9.162;2023-05-19T12:43:27;97817.28;;;13.34;95.32
498;BME280;39559;48.630;9.162;2023-05-19T12:47:49;97821.38;;;13.21;94.66
498;BME280;39559;48.630;9.162;2023-05-19T12:50:29;97816.44;;;13.34;95.29
498;BME280;39559;48.630;9.162;2023-05-19T12:52:55;97816.28;;;13.37;92.10
498;BME280;39559;48.630;9.162;2023-05-19T12:55:20;97825.47;;;13.27;95.43
498;BME280;39559;48.630;9.162;2023-05-19T12:57:55;97824.63;;;13.07;93.61
498;BME280;39559;48.630;9.162;2023-05-19T13:00:24;97816.59;;;13.12;95.13
498;BME280;39559;48.630;9.162;2023-05-19T13:05:20;97817.06;;;13.20;97.22
498;BME280;39559;48.630;9.162;2023-05-19T13:08:14;97814.06;;;13.10;95.07
498;BME280;39559;48.630;9.162;2023-05-19T13:11:45;97813.63;;;13.19;93.78
498;BME280;39559;48.630;9.162;2023-05-19T13:14:15;97815.47;;;13.17;90.41
498;BME280;39559;48.630;9.162;2023-05-19T13:16:43;97804.41;;;13.49;92.50
498;BME280;39559;48.630;9.162;2023-05-19T13:19:14;97813.59;;;13.38;98.46
498;BME280;39559;48.630;9.162;2023-05-19T13:21:40;97801.31;;;13.40;95.20
498;BME280;39559;48.630;9.162;2023-05-19T13:24:06;97799.44;;;13.61;94.53
498;BME280;39559;48.630;9.162;2023-05-19T13:26:32;97798.81;;;13.56;95.19
498;BME280;39559;48.630;9.162;2023-05-19T13:28:57;97796.13;;;13.21;91.16
498;BME280;39559;48.630;9.162;2023-05-19T13:31:23;97798.69;;;13.23;100.00
498;BME280;39559;48.630;9.162;2023-05-19T13:35:41;97793.66;;;12.82;98.24
498;BME280;39559;48.630;9.162;2023-05-19T13:38:07;97792.19;;;12.95;94.40
498;BME280;39559;48.630;9.162;2023-05-19T13:40:34;97804.59;;;13.07;96.34
498;BME280;39559;48.630;9.162;2023-05-19T13:43:00;97797.22;;;12.98;93.86
498;BME280;39559;48.630;9.162;2023-05-19T13:45:28;97791.25;;;12.96;92.85
498;BME280;39559;48.630;9.162;2023-05-19T13:47:54;97793.59;;;13.02;93.26
498;BME280;39559;48.630;9.162;2023-05-19T13:50:20;97791.69;;;13.23;96.55
498;BME280;39559;48.630;9.162;2023-05-19T13:52:45;97788.47;;;13.18;94.11
498;BME280;39559;48.630;9.162;2023-05-19T13:55:11;97793.28;;;13.26;98.70
498;BME280;39559;48.630;9.162;2023-05-19T13:59:41;97780.38;;;13.42;94.24
498;BME280;39559;48.630;9.162;2023-05-19T14:02:09;97777.63;;;13.45;94.11
498;BME280;39559;48.630;9.162;2023-05-19T14:04:38;97776.63;;;13.48;95.99
498;BME280;39559;48.630;9.162;2023-05-19T14:07:07;97772.41;;;13.45;91.88
498;BME280;39559;48.630;9.162;2023-05-19T14:09:36;97765.81;;;13.38;91.26
498;BME280;39559;48.630;9.162;2023-05-19T14:12:01;97771.78;;;13.40;93.53
498;BME280;39559;48.630;9.162;2023-05-19T14:14:27;97773.25;;;13.46;93.87
498;BME280;39559;48.630;9.162;2023-05-19T14:16:53;97771.13;;;13.54;90.62
498;BME280;39559;48.630;9.162;2023-05-19T14:19:19;97776.34;;;13.54;91.64
498;BME280;39559;48.630;9.162;2023-05-19T14:23:34;97764.19;;;13.53;98.66
498;BME280;39559;48.630;9.162;2023-05-19T14:26:00;97763.13;;;13.74;99.02
498;BME280;39559;48.630;9.162;2023-05-19T14:28:25;97769.28;;;13.56;89.48
498;BME280;39559;48.630;9.162;2023-05-19T14:30:51;97754.59;;;13.53;92.53
498;BME280;39559;48.630;9.162;2023-05-19T14:33:17;97763.59;;;13.48;89.04
498;BME280;39559;48.630;9.162;2023-05-19T14:35:51;97769.13;;;13.41;92.69
498;BME280;39559;48.630;9.162;2023-05-19T14:38:17;97761.09;;;13.27;90.90
498;BME280;39559;48.630;9.162;2023-05-19T14:40:43;97773.28;;;13.27;90.25
498;BME280;39559;48.630;9.162;2023-05-19T14:43:10;97770.47;;;13.31;88.49
498;BME280;39559;48.630;9.162;2023-05-19T14:47:39;97775.97;;;13.25;89.94
498;BME280;39559;48.630;9.162;2023-05-19T14:50:05;97775.34;;;13.20;90.38
498;BME280;39559;48.630;9.162;2023-05-19T14:52:30;97777.66;;;13.26;88.87